Time;durP1;ratioP1;P1;durP2;ratioP2;P2;SDS_P1;SDS_P2;PMS_P1;PMS_P2;Temp;Humidity;BMP_temperature;BMP_pressure;BME280_temperature;BME280_humidity;BME280_pressure;Samples;Min_cycle;Max_cycle;Signal;HPM_P1;HPM_P2
2022/10/06 00:00:54;;;;;;;6.88;2.22;;;15.50;99.90;;;;;;4976173;28;92445;-74
2022/10/06 00:03:21;;;;;;;2.50;1.08;;;15.50;99.90;;;;;;4960678;28;93026;-73
2022/10/06 00:05:50;;;;;;;5.55;1.67;;;15.40;99.90;;;;;;4974774;28;95722;-73
2022/10/06 00:08:17;;;;;;;6.00;1.80;;;15.40;99.90;;;;;;4977310;28;95057;-73
2022/10/06 00:10:44;;;;;;;4.88;1.75;;;15.30;99.90;;;;;;4975979;28;92507;-73
2022/10/06 00:13:11;;;;;;;3.67;1.02;;;15.30;99.90;;;;;;4977646;28;92427;-73
2022/10/06 00:15:38;;;;;;;3.75;1.42;;;15.20;99.90;;;;;;4959951;28;93337;-74
2022/10/06 00:18:05;;;;;;;6.95;1.30;;;15.20;99.90;;;;;;4977317;28;93616;-73
2022/10/06 00:20:32;;;;;;;5.38;2.33;;;15.20;99.90;;;;;;4977483;28;92382;-74
2022/10/06 00:22:59;;;;;;;3.78;1.05;;;15.10;99.90;;;;;;4976146;28;91901;-73
2022/10/06 00:25:27;;;;;;;6.55;1.70;;;15.10;99.90;;;;;;4976038;28;93918;-73
2022/10/06 00:27:55;;;;;;;4.18;1.15;;;15.10;99.90;;;;;;4976742;28;93022;-74
2022/10/06 00:30:25;;;;;;;6.53;2.28;;;15.00;99.90;;;;;;4975971;28;95426;-73
2022/10/06 00:33:00;;;;;;;3.40;1.38;;;15.00;99.90;;;;;;4976966;28;92538;-73
2022/10/06 00:35:33;;;;;;;6.25;1.83;;;15.00;99.90;;;;;;4975620;28;95777;-74
2022/10/06 00:38:00;;;;;;;3.38;1.50;;;14.90;99.90;;;;;;4959110;28;95838;-74
2022/10/06 00:40:28;;;;;;;4.63;1.33;;;14.90;99.90;;;;;;4977281;28;93068;-73
2022/10/06 00:42:57;;;;;;;5.88;1.30;;;14.90;99.90;;;;;;4975559;28;92654;-73
2022/10/06 00:45:32;;;;;;;7.32;1.30;;;14.90;99.90;;;;;;4959282;28;96041;-74
2022/10/06 00:48:03;;;;;;;7.30;2.20;;;14.90;99.90;;;;;;4975534;28;95543;-73
2022/10/06 00:50:32;;;;;;;3.42;1.65;;;14.80;99.90;;;;;;4959609;28;92872;-73
2022/10/06 00:52:59;;;;;;;7.28;1.25;;;14.80;99.90;;;;;;4975340;28;92524;-73
2022/10/06 00:55:25;;;;;;;6.78;2.17;;;14.80;99.90;;;;;;4975501;28;95486;-73
2022/10/06 00:57:53;;;;;;;4.80;1.17;;;14.80;99.90;;;;;;4975086;28;96985;-74
2022/10/06 01:00:20;;;;;;;4.40;1.92;;;14.70;99.90;;;;;;4977009;28;92425;-74
2022/10/06 01:03:19;;;;;;;2.95;1.30;;;14.70;99.90;;;;;;4974697;28;96159;-73
2022/10/06 01:05:49;;;;;;;5.18;1.10;;;14.70;99.90;;;;;;4967033;28;96109;-74
2022/10/06 01:08:20;;;;;;;6.95;2.30;;;14.60;99.90;;;;;;4975390;28;92879;-73
2022/10/06 01:10:47;;;;;;;6.95;1.48;;;14.60;99.90;;;;;;4958989;28;93155;-74
2022/10/06 01:13:16;;;;;;;4.45;1.40;;;14.60;99.90;;;;;;4975660;28;91773;-74
2022/10/06 01:15:52;;;;;;;5.18;1.55;;;14.60;99.90;;;;;;4975051;28;93294;-73
2022/10/06 01:18:22;;;;;;;4.28;1.35;;;14.60;99.90;;;;;;4976169;28;92977;-73
2022/10/06 01:20:59;;;;;;;4.60;1.50;;;14.60;99.90;;;;;;4973746;28;94900;-74
2022/10/06 01:23:26;;;;;;;3.55;1.30;;;14.60;99.90;;;;;;4976617;28;92933;-73
2022/10/06 01:25:54;;;;;;;4.63;1.38;;;14.60;99.90;;;;;;4974822;28;95531;-74
2022/10/06 01:28:21;;;;;;;4.38;1.73;;;14.60;99.90;;;;;;4974473;28;95359;-74
2022/10/06 01:30:51;;;;;;;6.05;1.40;;;14.60;99.90;;;;;;4974972;28;93048;-73
2022/10/06 01:33:21;;;;;;;5.43;1.30;;;14.50;99.90;;;;;;4975160;28;92520;-73
2022/10/06 01:35:51;;;;;;;7.82;1.55;;;14.50;99.90;;;;;;4974616;28;95715;-74
2022/10/06 01:38:19;;;;;;;6.20;2.22;;;14.50;99.90;;;;;;4958733;28;95418;-74
2022/10/06 01:40:51;;;;;;;7.15;1.67;;;14.50;99.90;;;;;;4958979;28;92475;-73
2022/10/06 01:43:18;;;;;;;3.22;1.20;;;14.50;99.90;;;;;;4974785;28;92474;-73
2022/10/06 01:45:55;;;;;;;2.72;1.55;;;14.40;99.90;;;;;;4957332;28;98071;-74
2022/10/06 01:48:23;;;;;;;5.30;1.30;;;14.40;99.90;;;;;;4958181;28;97925;-73
2022/10/06 01:50:51;;;;;;;4.90;1.30;;;14.30;99.90;;;;;;4974648;28;92607;-73
2022/10/06 01:53:18;;;;;;;6.25;1.55;;;14.30;99.90;;;;;;4958155;28;99287;-73
2022/10/06 01:55:45;;;;;;;4.55;1.50;;;14.30;99.90;;;;;;4974465;28;95904;-73
2022/10/06 01:58:16;;;;;;;7.18;1.83;;;14.30;99.90;;;;;;4958937;28;95646;-74
2022/10/06 02:00:44;;;;;;;9.00;1.67;;;14.20;99.90;;;;;;4974621;28;92474;-74
2022/10/06 02:03:11;;;;;;;8.00;1.65;;;14.20;99.90;;;;;;4958678;28;91681;-73
2022/10/06 02:05:38;;;;;;;7.82;1.38;;;14.20;99.90;;;;;;4975860;28;93127;-73
2022/10/06 02:08:05;;;;;;;7.25;2.50;;;14.10;99.90;;;;;;4957943;28;95330;-73
2022/10/06 02:10:34;;;;;;;8.90;1.58;;;14.10;99.90;;;;;;4957375;28;94870;-73
2022/10/06 02:13:03;;;;;;;3.30;1.63;;;14.00;99.90;;;;;;4958227;28;92509;-74
2022/10/06 02:15:32;;;;;;;6.65;2.50;;;14.00;99.90;;;;;;4975756;28;93173;-73
2022/10/06 02:17:59;;;;;;;6.32;1.70;;;14.00;99.90;;;;;;4957830;28;95228;-73
2022/10/06 02:20:26;;;;;;;8.90;1.75;;;14.00;99.90;;;;;;4958693;28;93215;-73
2022/10/06 02:22:53;;;;;;;6.82;1.40;;;14.00;99.90;;;;;;4957785;28;92673;-74
2022/10/06 02:25:20;;;;;;;5.47;1.65;;;13.90;99.90;;;;;;4957972;28;95840;-73
2022/10/06 02:27:47;;;;;;;9.60;2.40;;;13.90;99.90;;;;;;4958181;28;95011;-73
2022/10/06 02:30:15;;;;;;;4.30;1.27;;;13.90;99.90;;;;;;4975993;28;92430;-73
2022/10/06 02:32:43;;;;;;;5.22;1.50;;;13.80;99.90;;;;;;4977947;28;92632;-73
2022/10/06 02:35:11;;;;;;;8.90;2.28;;;13.80;99.90;;;;;;4976181;28;98330;-73
2022/10/06 02:37:40;;;;;;;6.28;1.90;;;13.80;99.90;;;;;;4961274;28;97762;-73
2022/10/06 02:40:09;;;;;;;9.10;1.60;;;13.80;99.90;;;;;;4961860;28;93516;-73
2022/10/06 02:42:37;;;;;;;7.50;1.50;;;13.70;99.90;;;;;;4961583;28;92580;-73
2022/10/06 02:45:06;;;;;;;9.90;1.80;;;13.70;99.90;;;;;;4961203;28;95526;-73
2022/10/06 02:47:34;;;;;;;10.98;2.95;;;13.70;99.90;;;;;;4961105;28;95281;-73
2022/10/06 02:50:04;;;;;;;8.35;1.60;;;13.70;99.90;;;;;;4977319;28;92509;-73
2022/10/06 02:52:36;;;;;;;9.20;1.55;;;13.60;99.90;;;;;;4978024;28;91829;-73
2022/10/06 02:55:05;;;;;;;10.93;2.45;;;13.60;99.90;;;;;;4977095;28;94919;-73
2022/10/06 02:57:32;;;;;;;7.75;1.35;;;13.60;99.90;;;;;;4976819;28;95661;-73
2022/10/06 02:59:59;;;;;;;5.47;1.27;;;13.60;99.90;;;;;;4976145;28;94860;-73
2022/10/06 03:02:29;;;;;;;5.47;1.60;;;13.50;99.90;;;;;;4961323;28;92474;-73
2022/10/06 03:04:57;;;;;;;7.45;1.98;;;13.50;99.90;;;;;;4960994;28;95466;-73
2022/10/06 03:07:24;;;;;;;3.90;1.75;;;13.50;99.90;;;;;;4960869;28;95036;-73
2022/10/06 03:09:51;;;;;;;5.28;1.55;;;13.50;99.90;;;;;;4976921;28;92566;-73
2022/10/06 03:12:19;;;;;;;6.72;1.33;;;13.40;99.90;;;;;;4960960;28;93111;-73
2022/10/06 03:14:45;;;;;;;9.45;2.25;;;13.40;99.90;;;;;;4977025;28;95476;-73
2022/10/06 03:17:13;;;;;;;5.93;1.85;;;13.40;99.90;;;;;;4976917;28;95290;-73
2022/10/06 03:19:47;;;;;;;9.88;1.75;;;13.40;99.90;;;;;;4977151;28;93051;-73
2022/10/06 03:22:14;;;;;;;6.65;1.10;;;13.40;99.90;;;;;;4976863;28;92559;-73
2022/10/06 03:24:48;;;;;;;9.35;2.03;;;13.40;99.90;;;;;;4960327;28;98028;-73
2022/10/06 03:27:15;;;;;;;6.72;2.20;;;13.30;99.90;;;;;;4976247;28;97924;-73
2022/10/06 03:29:42;;;;;;;12.38;1.85;;;13.30;99.90;;;;;;4960703;28;92500;-73
2022/10/06 03:32:09;;;;;;;8.05;2.10;;;13.20;99.90;;;;;;4978053;28;92432;-73
2022/10/06 03:34:36;;;;;;;7.78;1.50;;;13.30;99.90;;;;;;4944402;28;95071;-74
2022/10/06 03:37:06;;;;;;;6.05;1.92;;;13.20;99.90;;;;;;4976346;28;95176;-74
2022/10/06 03:39:33;;;;;;;7.68;1.42;;;13.30;99.90;;;;;;4976979;28;92969;-74
2022/10/06 03:42:00;;;;;;;10.45;1.90;;;13.20;99.90;;;;;;4976582;28;91725;-73
2022/10/06 03:44:27;;;;;;;5.10;1.48;;;13.20;99.90;;;;;;4977630;28;93230;-74
2022/10/06 03:46:54;;;;;;;4.82;1.25;;;13.20;99.90;;;;;;4976761;28;93291;-73
2022/10/06 03:49:21;;;;;;;6.75;1.80;;;13.20;99.90;;;;;;4959118;28;94918;-73
2022/10/06 03:51:48;;;;;;;9.23;2.30;;;13.20;99.90;;;;;;4976471;28;92452;-73
2022/10/06 03:54:20;;;;;;;8.63;1.38;;;13.10;99.90;;;;;;4976281;28;95802;-73
2022/10/06 03:56:49;;;;;;;11.98;2.65;;;13.10;99.90;;;;;;4960283;28;94783;-73
2022/10/06 03:59:18;;;;;;;10.48;1.60;;;13.10;99.90;;;;;;4976367;28;92753;-73
2022/10/06 04:01:47;;;;;;;5.30;1.27;;;13.10;99.90;;;;;;4960357;28;92852;-73
2022/10/06 04:04:22;;;;;;;7.47;2.35;;;13.10;99.90;;;;;;4976360;28;93237;-73
2022/10/06 04:06:54;;;;;;;6.25;2.40;;;13.10;99.90;;;;;;4976516;28;94509;-73
2022/10/06 04:09:20;;;;;;;7.90;1.92;;;13.00;99.90;;;;;;4959789;28;92461;-73
2022/10/06 04:11:48;;;;;;;7.05;1.70;;;13.00;99.90;;;;;;4976363;28;92980;-74
2022/10/06 04:14:15;;;;;;;4.38;1.25;;;13.00;99.90;;;;;;4958522;28;97901;-74
2022/10/06 04:16:49;;;;;;;10.77;2.38;;;13.00;99.90;;;;;;4975806;28;97884;-73
2022/10/06 04:19:21;;;;;;;12.93;1.80;;;13.00;99.90;;;;;;4975929;28;92458;-73
2022/10/06 04:21:51;;;;;;;9.23;2.03;;;13.00;99.90;;;;;;4975953;28;92406;-73
2022/10/06 04:24:21;;;;;;;6.35;1.38;;;13.00;99.90;;;;;;4959909;28;95790;-73
2022/10/06 04:26:51;;;;;;;9.43;2.58;;;12.90;99.90;;;;;;4975403;28;95750;-73
2022/10/06 04:29:20;;;;;;;13.38;1.55;;;12.90;99.90;;;;;;4959689;28;92483;-73
2022/10/06 04:31:55;;;;;;;5.75;1.45;;;12.90;99.90;;;;;;4976343;28;91828;-73
2022/10/06 04:34:31;;;;;;;9.50;1.88;;;12.80;99.90;;;;;;4975757;28;95800;-73
2022/10/06 04:36:58;;;;;;;7.20;1.77;;;12.80;99.90;;;;;;4959581;28;93016;-73
2022/10/06 04:39:25;;;;;;;6.30;1.65;;;12.80;99.90;;;;;;4958123;28;94855;-73
2022/10/06 04:41:52;;;;;;;7.25;1.35;;;12.80;99.90;;;;;;4959736;28;93178;-73
2022/10/06 04:44:26;;;;;;;10.65;1.90;;;12.80;99.90;;;;;;4960180;28;95902;-73
2022/10/06 04:46:55;;;;;;;6.55;2.03;;;12.80;99.90;;;;;;4975501;28;95355;-73
2022/10/06 04:49:22;;;;;;;9.82;1.77;;;12.80;99.90;;;;;;4975590;28;92590;-73
2022/10/06 04:51:51;;;;;;;8.75;1.85;;;12.80;99.90;;;;;;4959552;28;92493;-73
2022/10/06 04:54:19;;;;;;;7.63;1.83;;;12.70;99.90;;;;;;4958104;28;95519;-73
2022/10/06 04:56:49;;;;;;;9.75;2.10;;;12.70;99.90;;;;;;4975797;28;95734;-73
2022/10/06 04:59:20;;;;;;;3.70;1.30;;;12.70;99.90;;;;;;4943906;28;92525;-73
2022/10/06 05:01:47;;;;;;;8.32;1.65;;;12.70;99.90;;;;;;4959448;28;92446;-73
2022/10/06 05:04:14;;;;;;;8.85;1.45;;;12.60;99.90;;;;;;4973927;28;98290;-73
2022/10/06 05:06:41;;;;;;;13.98;2.33;;;12.60;99.90;;;;;;4975176;28;95335;-73
2022/10/06 05:09:13;;;;;;;6.18;1.75;;;12.60;99.90;;;;;;4975263;28;92545;-73
2022/10/06 05:11:50;;;;;;;6.95;1.65;;;12.60;99.90;;;;;;4960711;28;92865;-73
2022/10/06 05:14:19;;;;;;;7.47;1.88;;;12.50;99.90;;;;;;4974815;28;95827;-73
2022/10/06 05:16:48;;;;;;;7.35;1.60;;;12.50;99.90;;;;;;4975098;28;95576;-73
2022/10/06 05:19:15;;;;;;;9.45;1.67;;;12.50;99.90;;;;;;4975071;28;92475;-73
2022/10/06 05:21:43;;;;;;;7.18;2.03;;;12.50;99.90;;;;;;4992050;28;91669;-73
2022/10/06 05:24:15;;;;;;;8.65;1.77;;;12.50;99.90;;;;;;4959580;28;95600;-73
2022/10/06 05:26:42;;;;;;;7.43;2.17;;;12.40;99.90;;;;;;4957988;28;95538;-73
2022/10/06 05:29:12;;;;;;;9.77;1.73;;;12.40;99.90;;;;;;4958229;28;94886;-73
2022/10/06 05:31:41;;;;;;;6.88;1.90;;;12.40;99.90;;;;;;4974620;28;93380;-73
2022/10/06 05:34:09;;;;;;;6.15;1.60;;;12.40;99.90;;;;;;4974793;28;95818;-73
2022/10/06 05:36:37;;;;;;;10.63;2.20;;;12.30;99.90;;;;;;4974553;28;94930;-73
2022/10/06 05:39:05;;;;;;;9.32;1.88;;;12.30;99.90;;;;;;4958908;28;92528;-73
2022/10/06 05:41:41;;;;;;;8.93;1.70;;;12.30;99.90;;;;;;4974672;28;93047;-73
2022/10/06 05:44:09;;;;;;;11.93;1.80;;;12.30;99.90;;;;;;4974633;28;95516;-73
2022/10/06 05:46:38;;;;;;;8.77;1.73;;;12.30;99.90;;;;;;4991397;28;95470;-73
2022/10/06 05:49:09;;;;;;;8.02;1.85;;;12.20;99.90;;;;;;4974846;28;92479;-73
2022/10/06 05:51:39;;;;;;;9.93;2.13;;;12.20;99.90;;;;;;4974512;28;93020;-73
2022/10/06 05:54:14;;;;;;;6.50;2.47;;;12.20;99.90;;;;;;4958270;28;98274;-73
2022/10/06 05:56:41;;;;;;;9.23;2.25;;;12.20;99.90;;;;;;4974270;28;97859;-73
2022/10/06 05:59:08;;;;;;;6.95;1.83;;;12.20;99.90;;;;;;4958281;28;92495;-73
2022/10/06 06:01:41;;;;;;;12.43;2.13;;;12.20;99.90;;;;;;4974406;28;92527;-73
2022/10/06 06:04:15;;;;;;;9.27;2.30;;;12.20;99.90;;;;;;4974007;28;95520;-73
2022/10/06 06:06:49;;;;;;;8.38;1.92;;;12.20;99.90;;;;;;4959010;28;95442;-73
2022/10/06 06:09:21;;;;;;;9.55;1.60;;;12.20;99.90;;;;;;4974447;28;92509;-73
2022/10/06 06:11:59;;;;;;;6.70;1.60;;;12.20;99.90;;;;;;4974851;28;91848;-73
2022/10/06 06:17:22;;;;;;;9.60;2.72;;;12.20;99.90;;;;;;4974258;28;94323;-73
2022/10/06 06:19:49;;;;;;;7.03;1.80;;;12.30;99.90;;;;;;4972694;28;96712;-73
2022/10/06 06:22:16;;;;;;;6.95;1.83;;;12.30;99.90;;;;;;4974476;28;92526;-73
2022/10/06 06:24:45;;;;;;;10.27;1.80;;;12.30;99.90;;;;;;4973925;28;95828;-73
2022/10/06 06:27:13;;;;;;;7.60;1.75;;;12.30;99.90;;;;;;4973884;28;95202;-73
2022/10/06 06:29:40;;;;;;;7.88;1.67;;;12.40;99.90;;;;;;4957959;28;92576;-73
2022/10/06 06:32:08;;;;;;;9.50;2.05;;;12.40;99.90;;;;;;4957792;28;92465;-73
2022/10/06 06:34:36;;;;;;;13.65;1.90;;;12.40;99.90;;;;;;4957826;28;95426;-73
2022/10/06 06:37:04;;;;;;;9.13;2.00;;;12.40;99.90;;;;;;4974520;28;95416;-73
2022/10/06 06:39:35;;;;;;;8.63;2.10;;;12.40;99.90;;;;;;4974218;28;92423;-73
2022/10/06 06:42:03;;;;;;;6.60;1.85;;;12.50;99.90;;;;;;4975523;28;92482;-73
2022/10/06 06:44:37;;;;;;;7.50;1.73;;;12.50;99.90;;;;;;4972391;28;94880;-73
2022/10/06 06:47:11;;;;;;;8.70;1.90;;;12.60;99.90;;;;;;4973799;28;97643;-73
2022/10/06 06:49:38;;;;;;;13.05;2.40;;;12.60;99.90;;;;;;4973966;28;92460;-73
2022/10/06 06:52:07;;;;;;;10.50;2.10;;;12.70;99.90;;;;;;4958242;28;93167;-73
2022/10/06 06:54:36;;;;;;;10.25;2.08;;;12.80;99.90;;;;;;4941694;28;95779;-73
2022/10/06 06:57:10;;;;;;;8.77;2.72;;;12.80;99.90;;;;;;4973677;28;95467;-73
2022/10/06 06:59:38;;;;;;;9.32;2.08;;;13.00;99.90;;;;;;4973879;28;92506;-73
2022/10/06 07:02:10;;;;;;;9.25;2.60;;;13.10;99.90;;;;;;4974052;28;91793;-73
2022/10/06 07:04:39;;;;;;;12.85;2.72;;;13.20;99.90;;;;;;4973565;28;95607;-73
2022/10/06 07:07:10;;;;;;;5.20;2.40;;;13.40;99.90;;;;;;4973567;28;94089;-74
2022/10/06 07:09:37;;;;;;;11.52;2.50;;;13.40;99.90;;;;;;4956242;28;95063;-73
2022/10/06 07:12:10;;;;;;;11.90;1.75;;;13.50;99.90;;;;;;4973809;28;92504;-73
2022/10/06 07:25:05;;;;;;;8.15;1.88;;;13.50;99.90;;;;;;4973456;28;95585;-73
2022/10/06 07:25:48;;;;;;;5.85;2.75;;;13.60;99.90;;;;;;4976555;28;95963;-73
2022/10/06 07:28:15;;;;;;;9.25;2.10;;;13.70;99.90;;;;;;4976925;28;94154;-73
2022/10/06 07:30:43;;;;;;;10.45;1.98;;;13.80;99.90;;;;;;4960280;28;92640;-73
2022/10/06 07:33:17;;;;;;;8.13;1.83;;;13.80;99.90;;;;;;4961759;28;93310;-73
2022/10/06 07:35:46;;;;;;;9.60;2.65;;;13.90;99.90;;;;;;4975399;28;97151;-73
2022/10/06 07:38:15;;;;;;;8.20;2.38;;;14.00;99.90;;;;;;4977955;28;95319;-73
2022/10/06 07:40:52;;;;;;;10.80;2.53;;;14.10;99.90;;;;;;4960806;28;92531;-73
2022/10/06 07:43:38;;;;;;;8.55;2.72;;;14.30;99.90;;;;;;4977295;28;92493;-73
2022/10/06 07:46:10;;;;;;;8.55;3.75;;;14.50;99.90;;;;;;4977956;28;93275;-73
2022/10/06 07:48:42;;;;;;;7.65;3.45;;;14.80;99.90;;;;;;4976251;28;95631;-74
2022/10/06 07:51:14;;;;;;;7.15;2.83;;;15.20;99.90;;;;;;4977948;28;92407;-73
2022/10/06 07:53:48;;;;;;;8.68;3.10;;;15.80;99.90;;;;;;4976626;28;91732;-74
2022/10/06 07:56:35;;;;;;;;;;;16.30;99.90;;;;;;4977495;28;93036;-74
2022/10/06 07:59:02;;;;;;;6.90;3.10;;;16.70;99.90;;;;;;4977101;28;95327;-74
2022/10/06 08:01:29;;;;;;;9.38;4.13;;;17.20;99.90;;;;;;4959097;28;94850;-74
2022/10/06 08:03:57;;;;;;;11.73;3.58;;;17.70;99.90;;;;;;4977653;28;92449;-74
2022/10/06 08:06:24;;;;;;;10.77;3.10;;;18.10;99.90;;;;;;4975957;28;93195;-74
2022/10/06 08:08:55;;;;;;;8.60;3.65;;;18.40;99.90;;;;;;4959492;28;106568;-74
2022/10/06 08:11:22;;;;;;;9.10;2.17;;;18.60;99.70;;;;;;4976330;28;92550;-74
2022/10/06 08:13:50;;;;;;;8.30;1.90;;;18.70;99.40;;;;;;4977513;28;92493;-74
2022/10/06 08:16:20;;;;;;;10.70;2.20;;;18.70;98.80;;;;;;4975949;28;95597;-74
2022/10/06 08:18:49;;;;;;;7.18;2.65;;;18.60;98.70;;;;;;4976963;28;92905;-74
2022/10/06 08:21:19;;;;;;;7.80;2.20;;;18.40;98.90;;;;;;4976032;28;92416;-73
2022/10/06 08:23:48;;;;;;;12.73;2.30;;;18.20;98.90;;;;;;4977266;28;92537;-74
2022/10/06 08:26:17;;;;;;;6.00;2.00;;;18.00;99.20;;;;;;4958383;28;98259;-74
2022/10/06 08:28:47;;;;;;;10.13;3.10;;;17.80;99.80;;;;;;4975345;28;98032;-74
2022/10/06 08:31:16;;;;;;;7.28;2.40;;;17.70;99.80;;;;;;4975908;28;92542;-74
2022/10/06 08:33:44;;;;;;;8.27;2.17;;;17.50;99.90;;;;;;4975996;28;93006;-74
2022/10/06 08:36:15;;;;;;;8.35;2.92;;;17.30;99.90;;;;;;4959614;28;95713;-74
2022/10/06 08:38:44;;;;;;;6.97;2.55;;;17.20;99.90;;;;;;4977079;28;92801;-74
2022/10/06 08:41:26;;;;;;;6.05;2.55;;;17.00;99.90;;;;;;4976878;28;92637;-74
2022/10/06 08:43:59;;;;;;;10.73;2.20;;;16.90;99.90;;;;;;4977202;28;91758;-74
2022/10/06 08:46:33;;;;;;;9.77;2.67;;;16.80;99.90;;;;;;4959346;28;93642;-74
2022/10/06 08:49:01;;;;;;;13.80;2.92;;;16.70;99.90;;;;;;4975483;28;92998;-74
2022/10/06 08:51:42;;;;;;;12.07;2.00;;;16.60;99.90;;;;;;4974465;28;94947;-74
2022/10/06 08:54:17;;;;;;;13.02;2.55;;;16.70;99.90;;;;;;4976653;28;92472;-74
2022/10/06 08:57:13;;;;;;;9.38;2.08;;;16.60;99.90;;;;;;4975787;28;93236;-74
2022/10/06 08:59:45;;;;;;;10.80;2.30;;;16.60;99.90;;;;;;4961885;28;94101;-74
2022/10/06 09:02:26;;;;;;;9.25;2.55;;;16.60;99.90;;;;;;4976692;28;92466;-73
2022/10/06 09:04:58;;;;;;;10.32;1.73;;;16.60;99.90;;;;;;4975482;28;92620;-74
2022/10/06 09:07:35;;;;;;;7.30;3.00;;;16.60;99.90;;;;;;4976670;28;93229;-74
2022/10/06 09:10:20;;;;;;;7.63;1.73;;;16.60;99.90;;;;;;4977050;28;92965;-73
2022/10/06 09:12:58;;;;;;;8.38;2.30;;;16.70;99.90;;;;;;4958806;28;92496;-73
2022/10/06 09:15:38;;;;;;;6.72;1.80;;;16.70;99.90;;;;;;4977165;28;92939;-73
2022/10/06 09:18:14;;;;;;;8.80;2.10;;;16.70;99.90;;;;;;4975069;28;95674;-74
2022/10/06 09:21:22;;;;;;;11.02;2.35;;;16.70;99.90;;;;;;4976437;28;94292;-73
2022/10/06 09:23:55;;;;;;;8.68;1.88;;;16.80;99.90;;;;;;4976796;28;93182;-74
2022/10/06 09:26:29;;;;;;;11.85;2.35;;;16.80;99.90;;;;;;4976722;28;92442;-74
2022/10/06 09:28:57;;;;;;;8.18;2.25;;;16.80;99.90;;;;;;4974681;28;95952;-74
2022/10/06 09:31:28;;;;;;;6.53;2.67;;;16.80;99.90;;;;;;4976345;28;92451;-74
2022/10/06 09:34:03;;;;;;;10.50;3.35;;;16.90;99.90;;;;;;4976211;28;92488;-74
2022/10/06 09:36:31;;;;;;;10.07;2.55;;;17.00;99.90;;;;;;4975153;28;92134;-74
2022/10/06 09:38:59;;;;;;;10.38;2.45;;;17.10;99.90;;;;;;4957607;28;93391;-74
2022/10/06 09:41:37;;;;;;;8.88;2.80;;;17.30;99.90;;;;;;4976151;28;92865;-74
2022/10/06 09:44:20;;;;;;;8.75;2.30;;;17.40;99.90;;;;;;4990256;28;95373;-74
2022/10/06 09:46:47;;;;;;;8.98;2.65;;;17.50;99.60;;;;;;4976249;28;92524;-74
2022/10/06 09:49:21;;;;;;;10.80;3.35;;;17.50;99.60;;;;;;4974615;28;93442;-74
2022/10/06 09:52:14;;;;;;;8.68;3.72;;;17.60;99.40;;;;;;4974637;28;92619;-74
2022/10/06 09:54:43;;;;;;;7.82;2.15;;;17.70;99.00;;;;;;4974835;28;92502;-74
2022/10/06 09:57:24;;;;;;;9.45;3.13;;;17.80;99.30;;;;;;4974481;28;92582;-74
2022/10/06 09:59:51;;;;;;;8.43;2.97;;;17.90;98.90;;;;;;4975989;28;93825;-74
2022/10/06 10:02:35;;;;;;;8.20;2.65;;;17.90;98.80;;;;;;4958364;28;94849;-74
2022/10/06 10:05:18;;;;;;;8.93;2.08;;;18.00;98.90;;;;;;4974298;28;92539;-73
2022/10/06 10:07:59;;;;;;;9.23;2.03;;;17.90;98.70;;;;;;4976024;28;92362;-74
2022/10/06 10:10:26;;;;;;;11.52;3.05;;;17.70;98.90;;;;;;4974804;28;95729;-74
2022/10/06 10:12:58;;;;;;;8.43;2.33;;;17.70;98.70;;;;;;4975620;28;95635;-74
2022/10/06 10:15:47;;;;;;;7.22;1.95;;;17.80;98.30;;;;;;4976055;28;92561;-73
2022/10/06 10:18:15;;;;;;;6.35;1.88;;;17.80;98.10;;;;;;4974615;28;92409;-74
2022/10/06 10:20:51;;;;;;;8.65;2.17;;;17.90;98.50;;;;;;4974198;28;92545;-74
2022/10/06 10:23:24;;;;;;;10.85;3.58;;;18.00;98.50;;;;;;4975144;28;92951;-74
2022/10/06 10:26:35;;;;;;;7.05;2.47;;;18.20;98.30;;;;;;4975859;28;92383;-74
2022/10/06 10:29:02;;;;;;;6.03;2.00;;;18.40;97.60;;;;;;4936011;28;91851;-74
2022/10/06 10:31:51;;;;;;;9.82;2.10;;;18.40;97.50;;;;;;4974511;28;93239;-74
2022/10/06 10:34:57;;;;;;;7.43;2.72;;;18.40;97.00;;;;;;4973719;28;95846;-74
2022/10/06 10:37:57;;;;;;;6.45;1.95;;;18.40;97.10;;;;;;4974339;28;94904;-74
2022/10/06 10:41:03;;;;;;;8.00;1.95;;;18.40;97.30;;;;;;4975241;28;92450;-74
2022/10/06 10:43:41;;;;;;;10.25;2.58;;;18.50;97.30;;;;;;4951794;28;94508;-74
2022/10/06 10:46:36;;;;;;;5.47;1.75;;;18.60;97.30;;;;;;4957523;28;95555;-74
2022/10/06 10:49:11;;;;;;;8.43;1.92;;;18.70;97.20;;;;;;4975553;28;92444;-74
2022/10/06 10:51:56;;;;;;;5.95;1.98;;;18.80;96.50;;;;;;4976518;28;92523;-74
2022/10/06 10:54:43;;;;;;;4.68;2.28;;;19.00;95.80;;;;;;4978544;28;93279;-74
2022/10/06 10:57:16;;;;;;;4.32;1.90;;;19.00;95.10;;;;;;4979006;28;93114;-74
2022/10/06 10:59:46;;;;;;;7.55;2.80;;;19.00;94.50;;;;;;4979003;28;92572;-73
2022/10/06 11:02:19;;;;;;;8.55;1.58;;;19.00;94.20;;;;;;4978229;28;99093;-73
2022/10/06 11:04:53;;;;;;;5.57;1.55;;;19.00;94.50;;;;;;4977172;28;95740;-74
2022/10/06 11:07:30;;;;;;;4.85;1.30;;;19.00;94.20;;;;;;4978108;28;95273;-74
2022/10/06 11:10:01;;;;;;;8.88;2.45;;;19.10;93.90;;;;;;4978688;28;92517;-74
2022/10/06 11:12:34;;;;;;;7.68;1.83;;;19.10;94.20;;;;;;4977198;28;92581;-74
2022/10/06 11:15:18;;;;;;;4.60;1.48;;;19.10;94.80;;;;;;4978519;28;93393;-74
2022/10/06 11:17:49;;;;;;;7.32;2.25;;;19.10;94.70;;;;;;4978573;28;92836;-74
2022/10/06 11:20:21;;;;;;;5.80;2.60;;;19.10;94.80;;;;;;4976919;28;92562;-74
2022/10/06 11:22:57;;;;;;;6.07;1.77;;;19.10;94.80;;;;;;4961170;28;91831;-74
2022/10/06 11:25:56;;;;;;;6.40;2.25;;;19.20;94.30;;;;;;4976670;28;96130;-74
2022/10/06 11:28:46;;;;;;;6.65;2.85;;;19.10;93.80;;;;;;4975879;28;95482;-74
2022/10/06 11:31:31;;;;;;;10.23;1.98;;;18.90;94.40;;;;;;4976552;28;94962;-74
2022/10/06 11:34:02;;;;;;;6.65;1.88;;;18.90;94.50;;;;;;4977167;28;92864;-74
2022/10/06 11:36:47;;;;;;;8.90;2.08;;;18.80;94.70;;;;;;4977850;28;94237;-74
2022/10/06 11:39:29;;;;;;;6.55;2.20;;;18.90;94.70;;;;;;4977807;28;93610;-74
2022/10/06 11:42:02;;;;;;;7.45;1.67;;;18.90;94.40;;;;;;4978781;28;92990;-74
2022/10/06 11:44:44;;;;;;;5.57;1.60;;;18.90;94.30;;;;;;4978016;28;92542;-74
2022/10/06 11:47:21;;;;;;;3.42;1.80;;;19.10;94.40;;;;;;4977977;28;93264;-74
2022/10/06 11:50:00;;;;;;;11.93;2.78;;;19.20;94.30;;;;;;4978367;28;93130;-74
2022/10/06 11:52:27;;;;;;;6.10;2.22;;;19.40;94.20;;;;;;4977728;28;92534;-74
2022/10/06 11:55:04;;;;;;;6.43;2.15;;;19.60;93.70;;;;;;4977896;28;92353;-74
2022/10/06 11:57:32;;;;;;;5.60;2.35;;;19.80;93.10;;;;;;4976389;28;95642;-74
2022/10/06 12:00:15;;;;;;;10.43;1.48;;;20.00;93.00;;;;;;4959686;28;98909;-74
2022/10/06 12:02:44;;;;;;;5.03;1.20;;;20.10;92.50;;;;;;4975759;28;92549;-74
2022/10/06 12:05:12;;;;;;;5.13;2.03;;;20.00;91.80;;;;;;4960140;28;92927;-74
2022/10/06 12:07:59;;;;;;;5.97;3.13;;;19.90;91.30;;;;;;4977753;28;93338;-74
2022/10/06 12:10:30;;;;;;;5.18;2.30;;;19.90;91.20;;;;;;4976052;28;93246;-74
2022/10/06 12:13:15;;;;;;;6.93;2.78;;;19.80;90.90;;;;;;4977492;28;92490;-74
2022/10/06 12:16:17;;;;;;;5.25;1.27;;;19.90;90.80;;;;;;4978077;28;91776;-74
2022/10/06 12:19:22;;;;;;;4.28;1.20;;;19.80;90.90;;;;;;4975684;28;95792;-74
2022/10/06 12:22:07;;;;;;;6.30;2.58;;;19.90;90.40;;;;;;4975558;28;95901;-74
2022/10/06 12:24:59;;;;;;;8.88;1.42;;;19.90;89.10;;;;;;4974673;28;94896;-74
2022/10/06 12:27:31;;;;;;;2.92;0.88;;;19.90;89.90;;;;;;4976776;28;92421;-74
2022/10/06 12:30:14;;;;;;;4.60;1.88;;;19.90;89.70;;;;;;4975455;28;95634;-74
2022/10/06 12:32:56;;;;;;;5.95;1.60;;;19.90;90.50;;;;;;4977313;28;93060;-74
2022/10/06 12:35:35;;;;;;;2.95;1.20;;;20.00;90.10;;;;;;4975644;28;92744;-74
2022/10/06 12:38:04;;;;;;;4.32;1.25;;;20.00;90.50;;;;;;4976868;28;92487;-74
2022/10/06 12:40:40;;;;;;;4.15;2.00;;;19.90;90.40;;;;;;4975247;28;95895;-74
2022/10/06 12:43:13;;;;;;;4.28;1.75;;;20.00;90.20;;;;;;4977186;28;92769;-74
2022/10/06 12:45:54;;;;;;;7.07;1.30;;;20.00;90.00;;;;;;4976735;28;92955;-74
2022/10/06 12:48:30;;;;;;;3.95;1.30;;;19.90;88.80;;;;;;4977072;28;93058;-74
2022/10/06 12:51:12;;;;;;;6.10;1.67;;;19.80;89.20;;;;;;4975614;28;95764;-73
2022/10/06 12:53:50;;;;;;;4.60;2.25;;;19.90;87.30;;;;;;4974998;28;97916;-74
2022/10/06 12:56:30;;;;;;;7.00;1.15;;;19.90;88.50;;;;;;4976438;28;92609;-74
2022/10/06 12:59:16;;;;;;;3.80;1.15;;;19.90;87.90;;;;;;4975408;28;92437;-74
2022/10/06 13:01:44;;;;;;;6.75;1.40;;;19.80;87.20;;;;;;4975602;28;93203;-74
2022/10/06 13:04:37;;;;;;;2.78;1.02;;;19.80;87.30;;;;;;4976599;28;92509;-74
2022/10/06 13:07:10;;;;;;;5.40;2.87;;;19.90;87.30;;;;;;4975615;28;92497;-74
2022/10/06 13:09:37;;;;;;;2.85;1.10;;;19.80;87.00;;;;;;4992024;28;91834;-74
2022/10/06 13:12:28;;;;;;;4.22;1.50;;;19.70;85.30;;;;;;4975444;28;93314;-74
2022/10/06 13:15:08;;;;;;;5.13;1.40;;;19.80;84.80;;;;;;4975452;28;92863;-74
2022/10/06 13:17:43;;;;;;;4.88;2.50;;;19.70;84.60;;;;;;4975360;28;94986;-74
2022/10/06 13:20:32;;;;;;;4.05;1.35;;;19.70;85.50;;;;;;4976794;28;92467;-74
2022/10/06 13:23:01;;;;;;;5.10;2.25;;;19.70;85.90;;;;;;4975061;28;95950;-74
2022/10/06 13:25:41;;;;;;;2.33;1.40;;;19.70;86.40;;;;;;4974677;28;93028;-74